^^

METAR Αεροδρομίων

σε ακτίνα 500 χλμ


 Τι είναι το METAR ??? 

Πρώτο είναι το πλησιέστερο αεροδρόμιο (Θεσ/νίκη LGTS 6χλμ) και
τέλος το πιο απομακρυσμένο (Κων/πολη LTBA 494χλμ).
Επίσης μερικές αναφορές, παρουσιάζουν λιγότερα στοιχεία γιατί
οι αρχικές είναι ελλιπείς ή έχουν λάθος μορφοποίηση.
Πηγαίνετε στις Αναφορές METAR από Μετεωρολογικούς Σταθμούς )  
Αλφαβητική Λίστα Γρήγορης Μετάβασης στα 48 Αεροδρόμια
Αλβανία: Τίρανα  Βουλγαρία: Γκόρνα Οριαχόβιτσα  Μπουργκάς  Σόφια  Φιλιππούπολη  Ελλάδα: Αθήνα  Αλεξανδρούπολη  Ανδραβίδα  Βόλος  Ελευσίνα  Ζάκυνθος  Θεσσαλονίκη  Ιωάννινα  Καβάλα  Καλαμάτα  Κέρκυρα  Κεφαλονιά  Κοζάνη  Κύθηρα
Λέσβος  Λήμνος  Μύκονος  Νάξος  Πάρος  Πάτρα  Πρέβεζα  Σάμος  Σκιάθος  Σκύρος  Σύρος  Χίος  Ιταλία: Γκαλατίνα  Μπρίντιζι  Σάντα Μαρία ντι Λέουκα  Ταράντο  Κόσοβο: Πρίστινα  Κροατία: Ντουμπρόβνικ  Μαυροβούνιο: Ποντγκόριτσα  Τιβάτ
Δ.Β.Μ: Οχρίδα  Σκόπια  Ρουμανία: Κραϊόβα  Σερβία: Κράλιεβο  Νις  Ούζιτσε  Τουρκία: Κωνσταντινούπολη  Σμύρνη Τσορλού 
(ΒΠΑ)Βάση Πολεμικής Αεροπορίας
LGTS - Αεροδρόμιο "Μακεδονία"
Θεσσαλονίκη - Κεντρική Μακεδονία - Ελλάδα
Γ.Πλάτ: 40.5167 - Γ.Μήκ: 22.9667 - Υψόμ: 7μ
Απόσταση από το Vouhead Weather: (Ν) 6χλμ
Ενημερώθηκε: 04/07/2022 06:20
Διάσπαρτα νέφη
Διάσπαρτα νέφη
 Άνεμος από ΔΒΔ
Άνεμος: ΔΒΔ 13 km/h
Θερμοκρασία: 26°C
Σημ. Δρόσου: 18°C
Υγρασία: 61%
Βαρόμετρο: 1015 hPa
Σύννεφα: Διάσπαρτα νέφη
Ορατότητα: 10 km
Ανάλυση νέφωσης: Διάσπαρτα νέφη 762 m
2022/07/04 03:20 LGTS 040320Z 30007KT 9999 FEW025 26/18 Q1015 NOSIG
LGKZ - Αεροδρόμιο "Φίλιππος"
Κοζάνη - Δυτική Μακεδονία - Ελλάδα
Γ.Πλάτ: 40.2833 - Γ.Μήκ: 21.8333 - Υψόμ: 628μ
Απόσταση από το Vouhead Weather: (ΔΝΔ) 102χλμ
Ενημερώθηκε: 04/07/2022 06:20

 Άνεμος από ΒΒΔ
Άνεμος: ΒΒΔ 7 km/h
Θερμοκρασία: 18°C
Σημ. Δρόσου: 12°C
Υγρασία: 68%
Βαρόμετρο: 1018 hPa
2022/07/04 03:20 LGKZ 040320Z AUTO 34004KT //// // ////// 18/12 Q1018 RE//
 
LGKV - Αεροδρόμιο "Μέγας Αλέξανδρος"
Καβάλα(Χρυσούπολη) - Α. Μακεδονία & Θράκη - Ελλάδα
Γ.Πλάτ: 40.9167 - Γ.Μήκ: 24.6167 - Υψόμ: 5μ
Απόσταση από το Vouhead Weather: (ΑΒΑ) 144χλμ
Ενημερώθηκε: 04/07/2022 06:20
Αίθριος
Αίθριος
 Άνεμος από ΑΒΑ
Άνεμος: ΑΒΑ 7 km/h
Θερμοκρασία: 19°C
Σημ. Δρόσου: 15°C
Υγρασία: 78%
Βαρόμετρο: 1015 hPa
Περίληψη: Αίθριος
Ορατότητα: Μεγαλύτερη από 10 km
2022/07/04 03:20 LGKV 040320Z 06004KT CAVOK 19/15 Q1015
LGBL - Αεροδρόμιο στη Νέα Αγχίαλο
Βόλος(Αλμυρός) - Θεσσαλία - Ελλάδα
Γ.Πλάτ: 39.2167 - Γ.Μήκ: 22.8000 - Υψόμ: 26μ
Απόσταση από το Vouhead Weather: (Ν) 151χλμ
Ενημερώθηκε: 04/07/2022 05:50
Αίθριος
Αίθριος
 Άνεμος από calm
Άνεμος: Απνοια
Θερμοκρασία: 19°C
Σημ. Δρόσου: 14°C
Υγρασία: 73%
Βαρόμετρο: 1015 hPa
Περίληψη: Αίθριος
Ορατότητα: Μεγαλύτερη από 10 km
2022/07/04 02:50 LGBL 040250Z 00000KT CAVOK 19/14 Q1015
 
LGSK - Αεροδρόμ. "Αλέξανδρος Παπαδιαμάντης"
Σκιάθος - Θεσσαλία(Σποράδες) - Ελλάδα
Γ.Πλάτ: 39.1833 - Γ.Μήκ: 23.5000 - Υψόμ: 15μ
Απόσταση από το Vouhead Weather: (ΝΝΑ) 160χλμ
Ενημερώθηκε: 04/07/2022 05:50
Αίθριος
Αίθριος
 Άνεμος από ΒΒΔ
Άνεμος: ΒΒΔ 13 km/h
Θερμοκρασία: 24°C
Σημ. Δρόσου: 18°C
Υγρασία: 69%
Βαρόμετρο: 1014 hPa
Περίληψη: Αίθριος
Ορατότητα: Μεγαλύτερη από 10 km
2022/07/04 02:50 LGSK 040250Z 33007KT CAVOK 24/18 Q1014
LWSK - Αεροδρόμιο "Σκόπγιε Ιντερνάσιοναλ Έιρπορτ"
Σκόπια(Πέτροβακ) - Περιφέρεια Σκοπίων - Δ.Β.Μ
Γ.Πλάτ: 41.9667 - Γ.Μήκ: 21.6333 - Υψόμ: 239μ
Απόσταση από το Vouhead Weather: (ΒΔ) 192χλμ
Ενημερώθηκε: 04/07/2022 06:30
Αίθριος
Αίθριος
 Άνεμος από ΝΑ
Άνεμος: ΝΑ 4 km/h
Θερμοκρασία: 19°C
Σημ. Δρόσου: 17°C
Υγρασία: 88%
Βαρόμετρο: 1017 hPa
Περίληψη: Αίθριος
Ορατότητα: Μεγαλύτερη από 10 km
2022/07/04 03:30 LWSK 040330Z 14002KT CAVOK 19/17 Q1017 NOSIG
 
LWOH - Αεροδρόμιο "Σεντ Πολ Δε Απόστλ"
Οχρίδα - Νοτιοδυτική Περιφέρεια - Δ.Β.Μ
Γ.Πλάτ: 41.9667 - Γ.Μήκ: 21.6333 - Υψόμ: 239μ
Απόσταση από το Vouhead Weather: (ΔΒΔ) 193χλμ
Ενημερώθηκε: 04/07/2022 06:30
Αίθριος
Αίθριος
 Άνεμος από ΒΒΔ
Άνεμος: ΒΒΔ 7 km/h
Θερμοκρασία: 16°C
Σημ. Δρόσου: 14°C
Υγρασία: 88%
Βαρόμετρο: 1019 hPa
Περίληψη: Αίθριος
Ορατότητα: Μεγαλύτερη από 10 km
2022/07/04 03:30 LWOH 040330Z 34004KT CAVOK 16/14 Q1019
LGLM - Αεροδρόμιο "Ήφαιστος"
Λήμνος - Βόρειο Αιγαίο - Ελλάδα
Γ.Πλάτ: 39.9167 - Γ.Μήκ: 25.2333 - Υψόμ: 5μ
Απόσταση από το Vouhead Weather: (ΑΝΑ) 205χλμ
Ενημερώθηκε: 04/07/2022 06:20
Αίθριος
Αίθριος
 Άνεμος από ΒΑ
Άνεμος: ΒΑ 26 km/h, Ριπή: 44 km/h
Θερμοκρασία: 22°C
Σημ. Δρόσου: 14°C
Υγρασία: 61%
Βαρόμετρο: 1013 hPa
Περίληψη: Αίθριος
Ορατότητα: Μεγαλύτερη από 10 km
2022/07/04 03:20 LGLM 040320Z 05014G24KT CAVOK 22/14 Q1013
 
LGIO - Αεροδρόμιο "Βασιλεύς Πύρρος"
Ιωάννινα - Ήπειρος - Ελλάδα
Γ.Πλάτ: 39.7000 - Γ.Μήκ: 20.8167 - Υψόμ: 476μ
Απόσταση από το Vouhead Weather: (ΔΝΔ) 207χλμ
Ενημερώθηκε: 04/07/2022 06:20

 Άνεμος από Μεταβλητός
Άνεμος: Μεταβλητός 4 km/h
Θερμοκρασία: 18°C
Σημ. Δρόσου: 14°C
Υγρασία: 78%
Βαρόμετρο: 1016 hPa
2022/07/04 03:20 LGIO 040320Z AUTO VRB02KT //// // ////// 18/14 Q1016 RE//
LGSY - Αεροδρόμιο στη Σκύρο
Σκύρος - Θεσσαλία(Σποράδες) - Ελλάδα
Γ.Πλάτ: 38.9667 - Γ.Μήκ: 24.4833 - Υψόμ: 15μ
Απόσταση από το Vouhead Weather: (ΝΑ) 220χλμ
Ενημερώθηκε: 04/07/2022 05:50
Αίθριος
Αίθριος
 Άνεμος από Β
Άνεμος: Β 22 km/h, Ριπή: 41 km/h
Θερμοκρασία: 22°C
Σημ. Δρόσου: 15°C
Υγρασία: 65%
Βαρόμετρο: 1013 hPa
Περίληψη: Αίθριος
Ορατότητα: Μεγαλύτερη από 10 km
2022/07/04 02:50 LGSY 040250Z 36012G22KT CAVOK 22/15 Q1013 BLU
 
LBPD - Αεροδρόμιο στη Φιλιππούπολη
Φιλιππούπολη(Κρούμοβο) - Πλόβντιβ - Βουλγαρία
Γ.Πλάτ: 42.1333 - Γ.Μήκ: 24.8000 - Υψόμ: 185μ
Απόσταση από το Vouhead Weather: (ΒΑ) 231χλμ
Ενημερώθηκε: 04/07/2022 06:30
Αίθριος
Αίθριος
 Άνεμος από ΔΒΔ
Άνεμος: ΔΒΔ 9 km/h
Θερμοκρασία: 17°C
Σημ. Δρόσου: 13°C
Υγρασία: 77%
Βαρόμετρο: 1018 hPa
Σύννεφα: Αίθριος
Ορατότητα: 10 km
2022/07/04 03:30 LBPD 040330Z AUTO 30005KT 9999 NCD 17/13 Q1018 NOSIG
LBSF - Αεροδρόμιο στη Σόφια
Σόφια(Βράτσντεμπνα) - Μητρ. περ. Σόφιας - Βουλγαρία
Γ.Πλάτ: 42.6500 - Γ.Μήκ: 23.3833 - Υψόμ: 595μ
Απόσταση από το Vouhead Weather: (Β) 234χλμ
Ενημερώθηκε: 04/07/2022 06:30
Αίθριος
Αίθριος
 Άνεμος από calm
Άνεμος: Απνοια
Θερμοκρασία: 17°C
Σημ. Δρόσου: 11°C
Υγρασία: 68%
Βαρόμετρο: 1020 hPa
Περίληψη: Αίθριος
Ορατότητα: Μεγαλύτερη από 10 km
2022/07/04 03:30 LBSF 040330Z 00000KT CAVOK 17/11 Q1020 NOSIG
 
LGAL - Αεροδρόμιο "Δημόκριτος"
Αλεξανδρούπολη - Α. Μακεδονία & Θράκη - Ελλάδα
Γ.Πλάτ: 40.8500 - Γ.Μήκ: 25.9167 - Υψόμ: 3μ
Απόσταση από το Vouhead Weather: (Α) 250χλμ
Ενημερώθηκε: 04/07/2022 06:20
Αίθριος
Αίθριος
 Άνεμος από ΒΒΑ
Άνεμος: ΒΒΑ 9 km/h
Θερμοκρασία: 18°C
Σημ. Δρόσου: 14°C
Υγρασία: 78%
Βαρόμετρο: 1015 hPa
Περίληψη: Αίθριος
Ορατότητα: Μεγαλύτερη από 10 km
2022/07/04 03:20 LGAL 040320Z 02005KT CAVOK 18/14 Q1015
BKPR - Αεροδρόμιο "Αντεμ Γιασάρι"
Πρίστινα - Πρίστινα - Κόσοβο
(Ελληνικό Υπουργείο Εξωτερικών, σχετικά με το Κόσοβο)
Γ.Πλάτ: 42.5833 - Γ.Μήκ: 21.0333 - Υψόμ: 576μ
Απόσταση από το Vouhead Weather: (ΒΔ) 276χλμ
Ενημερώθηκε: 04/07/2022 06:30
Αίθριος
Αίθριος
 Άνεμος από Μεταβλητός
Άνεμος: Μεταβλητός 2 km/h
Θερμοκρασία: 18°C
Σημ. Δρόσου: 15°C
Υγρασία: 83%
Βαρόμετρο: 1019 hPa
Περίληψη: Αίθριος
Ορατότητα: Μεγαλύτερη από 10 km
2022/07/04 03:30 BKPR 040330Z VRB01KT CAVOK 18/15 Q1019 NOSIG
 
LGKR - Αεροδρόμιο "Ιωάννης Καποδίστριας"
Κέρκυρα - Ιόνιοι Νήσοι - Ελλάδα
Γ.Πλάτ: 39.6000 - Γ.Μήκ: 19.9167 - Υψόμ: 2μ
Απόσταση από το Vouhead Weather: (ΔΝΔ) 281χλμ
Ενημερώθηκε: 04/07/2022 06:20
Αίθριος
Αίθριος
 Άνεμος από calm
Άνεμος: Απνοια
Θερμοκρασία: 25°C
Σημ. Δρόσου: 20°C
Υγρασία: 74%
Βαρόμετρο: 1012 hPa
Περίληψη: Αίθριος
Ορατότητα: Μεγαλύτερη από 10 km
2022/07/04 03:20 LGKR 040320Z 00000KT CAVOK 25/20 Q1012 NOSIG
LATI - Αεροδρόμιο "Μάδερ Τερέζα"
Τίρανα(Ρίνα) - Τίρανα - Αλβανία
Γ.Πλάτ: 41.3167 - Γ.Μήκ: 19.7667 - Υψόμ: 90μ
Απόσταση από το Vouhead Weather: (ΔΒΔ) 282χλμ
Ενημερώθηκε: 04/07/2022 06:50
Αίθριος
Αίθριος
 Άνεμος από ΝΝΔ
Άνεμος: ΝΝΔ 4 km/h
Θερμοκρασία: 22°C
Σημ. Δρόσου: 18°C
Υγρασία: 78%
Βαρόμετρο: 1014 hPa
Περίληψη: Αίθριος
Ορατότητα: Μεγαλύτερη από 10 km
2022/07/04 03:50 LATI 040350Z 20002KT CAVOK 22/18 Q1014 NOSIG
 
LGEL - Αεροδρόμιο στην Ελευσίνα(ΒΠΑ)
Ελευσίνα - Αττική - Ελλάδα
Γ.Πλάτ: 38.0667 - Γ.Μήκ: 23.5500 - Υψόμ: 31μ
Απόσταση από το Vouhead Weather: (Ν) 282χλμ
Ενημερώθηκε: 04/07/2022 06:20
Αίθριος
Αίθριος
 Άνεμος από ΒΒΔ
Άνεμος: ΒΒΔ 20 km/h
Θερμοκρασία: 26°C
Σημ. Δρόσου: 8°C
Υγρασία: 32%
Βαρόμετρο: 1012 hPa
Περίληψη: Αίθριος
Ορατότητα: Μεγαλύτερη από 10 km
2022/07/04 03:20 LGEL 040320Z 34011KT CAVOK 26/08 Q1012
LGPZ - Αεροδρόμιο στη Πρέβεζα
Πρέβεζα(Ακτιον) - Ήπειρος - Ελλάδα
Γ.Πλάτ: 38.6167 - Γ.Μήκ: 20.7667 - Υψόμ: 4μ
Απόσταση από το Vouhead Weather: (ΝΔ) 288χλμ
Ενημερώθηκε: 04/07/2022 06:20
Αίθριος
Αίθριος
 Άνεμος από ΒΒΑ
Άνεμος: ΒΒΑ 11 km/h
Θερμοκρασία: 26°C
Σημ. Δρόσου: 17°C
Υγρασία: 58%
Βαρόμετρο: 1012 hPa
Περίληψη: Αίθριος
Ορατότητα: Μεγαλύτερη από 10 km
2022/07/04 03:20 LGPZ 040320Z 03006KT CAVOK 26/17 Q1012
 
LGRX - Αεροδρόμιο στη Πάτρα(ΒΠΑ)
Πάτρα(Αραξος) - Δυτική Ελλάδα - Ελλάδα
Γ.Πλάτ: 38.1667 - Γ.Μήκ: 21.4167 - Υψόμ: 15μ
Απόσταση από το Vouhead Weather: (ΝΝΔ) 299χλμ
Ενημερώθηκε: 04/07/2022 06:20
Αίθριος
Αίθριος
 Άνεμος από ΒΑ
Άνεμος: ΒΑ 11 km/h
Θερμοκρασία: 26°C
Σημ. Δρόσου: 14°C
Υγρασία: 48%
Βαρόμετρο: 1012 hPa
Περίληψη: Αίθριος
Ορατότητα: Μεγαλύτερη από 10 km
2022/07/04 03:20 LGRX 040320Z 04006KT CAVOK 26/14 Q1012
LGAV - Αεροδρόμιο "Ελευθέριος Βεμιζέλος"
Αθήνα(Σπάτα) - Αττική - Ελλάδα
Γ.Πλάτ: 37.9333 - Γ.Μήκ: 23.9500 - Υψόμ: 94μ
Απόσταση από το Vouhead Weather: (ΝΝΑ) 305χλμ
Ενημερώθηκε: 04/07/2022 06:20
Αίθριος
Αίθριος
 Άνεμος από Β
Άνεμος: Β 24 km/h
Θερμοκρασία: 24°C
Σημ. Δρόσου: 7°C
Υγρασία: 34%
Βαρόμετρο: 1012 hPa
Περίληψη: Αίθριος
Ορατότητα: Μεγαλύτερη από 10 km
2022/07/04 03:20 LGAV 040320Z 01013KT CAVOK 24/07 Q1012 NOSIG
 
LYNI - Αεροδρόμιο "Κονσταντίν Δε Γκρέιτ"
Νις - Νότια και Ανατολική Σερβία - Σερβία
Γ.Πλάτ: 43.3167 - Γ.Μήκ: 21.8833 - Υψόμ: 202μ
Απόσταση από το Vouhead Weather: (ΒΒΔ) 319χλμ
Ενημερώθηκε: 04/07/2022 06:30
Αίθριος
Αίθριος
 Άνεμος από Ν
Άνεμος: Ν 4 km/h
Θερμοκρασία: 19°C
Σημ. Δρόσου: 19°C
Υγρασία: 100%
Βαρόμετρο: 1017 hPa
Περίληψη: Αίθριος
Ορατότητα: Μεγαλύτερη από 10 km
2022/07/04 03:30 LYNI 040330Z 19002KT CAVOK 19/19 Q1017 NOSIG
LGAD - Αεροδρόμιο στην Ανδραβίδα(ΒΠΑ)
Ανδραβίδα - Δυτική Ελλάδα - Ελλάδα
Γ.Πλάτ: 37.9167 - Γ.Μήκ: 21.2667 - Υψόμ: 12μ
Απόσταση από το Vouhead Weather: (ΝΝΔ) 329χλμ
Ενημερώθηκε: 04/07/2022 06:20
Αίθριος
Αίθριος
 Άνεμος από calm
Άνεμος: Απνοια
Θερμοκρασία: 17°C
Σημ. Δρόσου: 12°C
Υγρασία: 73%
Βαρόμετρο: 1011 hPa
Περίληψη: Αίθριος
Ορατότητα: Μεγαλύτερη από 10 km
2022/07/04 03:20 LGAD 040320Z 00000KT CAVOK 17/12 Q1011
 
LGKF - Αεροδρόμιο στην Κεφαλονιά
Κεφαλονιά - Ιόνιοι Νήσοι - Ελλάδα
Γ.Πλάτ: 38.1167 - Γ.Μήκ: 20.5000 - Υψόμ: 18μ
Απόσταση από το Vouhead Weather: (ΝΔ) 346χλμ
Ενημερώθηκε: 04/07/2022 00:50
ΜΗ ΠΡΟΣΦΑΤΟ METAR
Αίθριος
Αίθριος
 Άνεμος από ΒΒΔ
Άνεμος: ΒΒΔ 17 km/h
Θερμοκρασία: 28°C
Δείκτης Δυσφορίας: 29°C
Σημ. Δρόσου: 19°C
Υγρασία: 58%
Βαρόμετρο: 1012 hPa
Περίληψη: Αίθριος
Ορατότητα: Μεγαλύτερη από 10 km
2022/07/03 21:50 LGKF 032150Z 34009KT CAVOK 28/19 Q1012
LGMT - Αεροδρόμιο "Οδυσσέας Ελύτης"
Λέσβος - Βόρειο Αιγαίο - Ελλάδα
Γ.Πλάτ: 39.0500 - Γ.Μήκ: 26.6000 - Υψόμ: 17μ
Απόσταση από το Vouhead Weather: (ΑΝΑ) 353χλμ
Ενημερώθηκε: 04/07/2022 06:20
Αίθριος
Αίθριος
 Άνεμος από Μεταβλητός
Άνεμος: Μεταβλητός 6 km/h
Θερμοκρασία: 21°C
Σημ. Δρόσου: 12°C
Υγρασία: 57%
Βαρόμετρο: 1011 hPa
Περίληψη: Αίθριος
Ορατότητα: Μεγαλύτερη από 10 km
2022/07/04 03:20 LGMT 040320Z VRB03KT CAVOK 21/12 Q1011
 
LGZA - Αεροδρόμιο "Διονύσιος Σολωμός"
Ζάκυνθος - Ιόνιοι Νήσοι - Ελλάδα
Γ.Πλάτ: 37.7500 - Γ.Μήκ: 20.8667 - Υψόμ: 3μ
Απόσταση από το Vouhead Weather: (ΝΝΔ) 362χλμ
Ενημερώθηκε: 04/07/2022 05:50
Αίθριος
Αίθριος
 Άνεμος από ΒΒΔ
Άνεμος: ΒΒΔ 11 km/h
Θερμοκρασία: 26°C
Σημ. Δρόσου: 18°C
Υγρασία: 61%
Βαρόμετρο: 1012 hPa
Περίληψη: Αίθριος
Ορατότητα: Μεγαλύτερη από 10 km
2022/07/04 02:50 LGZA 040250Z 33006KT CAVOK 26/18 Q1012
LBGO - Αεροδρόμιο στη Γκόρνα Οριαχόβιτσα
Γκόρνα Οριαχόβιτσα - Βέλικο Τάρνοβο - Βουλγαρία
Γ.Πλάτ: 43.1500 - Γ.Μήκ: 25.7167 - Υψόμ: 86μ
Απόσταση από το Vouhead Weather: (ΒΑ) 366χλμ
Ενημερώθηκε: 04/07/2022 06:30
Διάσπαρτα νέφη
Διάσπαρτα νέφη
 Άνεμος από Μεταβλητός
Άνεμος: Μεταβλητός 4 km/h
Θερμοκρασία: 16°C
Σημ. Δρόσου: 15°C
Υγρασία: 94%
Βαρόμετρο: 1017 hPa
Σύννεφα: Διάσπαρτα νέφη
Ορατότητα: 10 km
Ανάλυση νέφωσης: Διάσπαρτα νέφη 61 m
2022/07/04 03:30 LBGO 040330Z AUTO VRB02KT 9999 FEW002/// 16/15 Q1017 NOSIG
 
LGHI - Αεροδρόμιο "Όμηρος"
Χίος - Ιόνιοι Νήσοι - Ελλάδα
Γ.Πλάτ: 38.3167 - Γ.Μήκ: 26.1167 - Υψόμ: 4μ
Απόσταση από το Vouhead Weather: (ΝΑ) 368χλμ
Ενημερώθηκε: 04/07/2022 05:50
Αίθριος
Αίθριος
 Άνεμος από Β
Άνεμος: Β 26 km/h, Ριπή: 44 km/h
Θερμοκρασία: 24°C
Σημ. Δρόσου: 11°C
Υγρασία: 44%
Βαρόμετρο: 1008 hPa
Περίληψη: Αίθριος
Ορατότητα: Μεγαλύτερη από 10 km
2022/07/04 02:50 LGHI 040250Z 36014G24KT CAVOK 24/11 Q1008
LYPG - Αεροδρόμιο στη Ποντγκόριτσα
Ποντγκόριτσα - Γκολούμποβτσι - Μαυροβούνιο
Γ.Πλάτ: 42.3667 - Γ.Μήκ: 19.2500 - Υψόμ: 43μ
Απόσταση από το Vouhead Weather: (ΒΔ) 369χλμ
Ενημερώθηκε: 04/07/2022 06:30
Μερικώς νεφελώδης
Μερικώς νεφελώδης
 Άνεμος από ΑΒΑ
Άνεμος: ΑΒΑ 7 km/h
Θερμοκρασία: 27°C
Δείκτης Δυσφορίας: 27°C
Σημ. Δρόσου: 14°C
Υγρασία: 45%
Βαρόμετρο: 1014 hPa
Σύννεφα: Μερικώς νεφελώδης
Ορατότητα: 10 km
Ανάλυση νέφωσης: Μερικώς νεφελώδης 2438 m
2022/07/04 03:30 LYPG 040330Z 06004KT 9999 SCT080 27/14 Q1014 NOSIG
 
LGSO - Αεροδρόμιο "Δημήτριος Βικέλας"
Σύρος - Νότιο Αιγαίο - Ελλάδα
Γ.Πλάτ: 37.4167 - Γ.Μήκ: 24.9500 - Υψόμ: 72μ
Απόσταση από το Vouhead Weather: (ΝΝΑ) 390χλμ
Ενημερώθηκε: 04/07/2022 06:20

 Άνεμος από Β
Άνεμος: Β 43 km/h
Θερμοκρασία: 22°C
Σημ. Δρόσου: 15°C
Υγρασία: 65%
Βαρόμετρο: 1009 hPa
2022/07/04 03:20 LGSO 040320Z AUTO 36023KT //// // ////// 22/15 Q1009 RE//
LGKL - Αεροδρόμιο στη Καλαμάτα(ΒΠΑ)
Καλαμάτα - Πελοπόννησος - Ελλάδα
Γ.Πλάτ: 37.0667 - Γ.Μήκ: 22.0167 - Υψόμ: 8μ
Απόσταση από το Vouhead Weather: (ΝΝΔ) 398χλμ
Ενημερώθηκε: 04/07/2022 06:20
Διάσπαρτα νέφη
Διάσπαρτα νέφη
 Άνεμος από calm
Άνεμος: Απνοια
Θερμοκρασία: 17°C
Σημ. Δρόσου: 14°C
Υγρασία: 83%
Βαρόμετρο: 1011 hPa
Σύννεφα: Διάσπαρτα νέφη
Ορατότητα: 10 km
Ανάλυση νέφωσης: Διάσπαρτα νέφη 2438 m
2022/07/04 03:20 LGKL 040320Z 00000KT 9999 FEW080 17/14 Q1011
 
LIBY - Αεροδρόμιο στη Σάντα Μαρία ντι Λέουκα
Σάντα Μαρία ντι Λέουκα - Απουλία(Λέτσε) - Ιταλία
Γ.Πλάτ: 39.8167 - Γ.Μήκ: 18.3500 - Υψόμ: 112μ
Απόσταση από το Vouhead Weather: (Δ) 402χλμ
Ενημερώθηκε: 03/07/2022 20:55
ΜΗ ΠΡΟΣΦΑΤΟ METAR
Αίθριος
Αίθριος
 Άνεμος από ΒΑ
Άνεμος: ΒΑ 6 km/h
Θερμοκρασία: 30°C
Δείκτης Δυσφορίας: 37°C
Σημ. Δρόσου: 26°C
Υγρασία: 79%
Βαρόμετρο: 1012 hPa
Περίληψη: Αίθριος
Ορατότητα: Μεγαλύτερη από 10 km
2022/07/03 17:55 LIBY 031755Z 04003KT CAVOK 30/26 Q1012 RMK SKC QUK 1 QUL 0 VIS MAR 12 KM VIS MIN 9999
LGMK - Αεροδρόμιο στη Μύκονο
Μύκονος - Νότιο Αιγαίο - Ελλάδα
Γ.Πλάτ: 37.4333 - Γ.Μήκ: 25.3500 - Υψόμ: 123μ
Απόσταση από το Vouhead Weather: (ΝΝΑ) 404χλμ
Ενημερώθηκε: 04/07/2022 06:20
Αίθριος
Αίθριος
 Άνεμος από Μεταβλητός
Άνεμος: Μεταβλητός 0 km/h
Θερμοκρασία: 21°C
Σημ. Δρόσου: 16°C
Υγρασία: 73%
Βαρόμετρο: 1008 hPa
Περίληψη: Αίθριος
Ορατότητα: Μεγαλύτερη από 10 km
2022/07/04 03:20 LGMK 040320Z /////KT CAVOK 21/16 Q1008
 
LYTV - Αεροδρόμιο στο Τιβάτ
Τιβάτ - Τιβάτ - Μαυροβούνιο
Γ.Πλάτ: 42.3833 - Γ.Μήκ: 18.7167 - Υψόμ: 5μ
Απόσταση από το Vouhead Weather: (ΔΒΔ) 408χλμ
Ενημερώθηκε: 04/07/2022 06:30
Αίθριος
Αίθριος
 Άνεμος από Μεταβλητός
Άνεμος: Μεταβλητός 2 km/h
Θερμοκρασία: 20°C
Σημ. Δρόσου: 18°C
Υγρασία: 88%
Βαρόμετρο: 1013 hPa
Περίληψη: Αίθριος
Ορατότητα: Μεγαλύτερη από 10 km
2022/07/04 03:30 LYTV 040330Z AUTO VRB01KT CAVOK 20/18 Q1013
LIBN - Αεροδρόμιο στη Γκαλατίνα(ΒΠΑ)
Γκαλατίνα - Απουλία(Λέτσε) - Ιταλία
Γ.Πλάτ: 40.2167 - Γ.Μήκ: 18.1333 - Υψόμ: 61μ
Απόσταση από το Vouhead Weather: (Δ) 412χλμ
Ενημερώθηκε: 04/07/2022 05:55
Αίθριος
Αίθριος
 Άνεμος από ΒΔ
Άνεμος: ΒΔ 2 km/h
Θερμοκρασία: 22°C
Σημ. Δρόσου: 21°C
Υγρασία: 94%
Βαρόμετρο: 1014 hPa
Περίληψη: Αίθριος
Ορατότητα: Μεγαλύτερη από 10 km
2022/07/04 02:55 LIBN 040255Z 32001KT CAVOK 22/21 Q1014
 
LYKV - Αεροδρόμιο στο Κράλιεβο & Λάντεβτσι
Κράλιεβο(Όμπρβα) - Σουμαντίγια και Δ. Σερβία - Σερβία
Γ.Πλάτ: 43.8167 - Γ.Μήκ: 20.5833 - Υψόμ: 209μ
Απόσταση από το Vouhead Weather: (ΒΒΔ) 412χλμ
Ενημερώθηκε: 04/07/2022 06:30
Αίθριος
Αίθριος
 Άνεμος από Μεταβλητός
Άνεμος: Μεταβλητός 2 km/h
Θερμοκρασία: 19°C
Σημ. Δρόσου: 18°C
Υγρασία: 94%
Βαρόμετρο: 1017 hPa
Περίληψη: Αίθριος
Ορατότητα: Μεγαλύτερη από 10 km
2022/07/04 03:30 LYKV 040330Z VRB01KT CAVOK 19/18 Q1017 NOSIG
LTBU - Αεροδρόμιο στο Τσορλού(ΒΠΑ)
Τσορλού - Μαρμαράς(Τεκιρντάγ-Ραιδεστός) - Τουρκία
Γ.Πλάτ: 41.1167 - Γ.Μήκ: 27.9167 - Υψόμ: 173μ
Απόσταση από το Vouhead Weather: (Α) 420χλμ
Ενημερώθηκε: 04/07/2022 06:20
Αίθριος
Αίθριος
 Άνεμος από Β
Άνεμος: Β 9 km/h
Θερμοκρασία: 15°C
Σημ. Δρόσου: 13°C
Υγρασία: 88%
Βαρόμετρο: 1016 hPa
Περίληψη: Αίθριος
Ορατότητα: Μεγαλύτερη από 10 km
2022/07/04 03:20 LTBU 040320Z 35005KT CAVOK 15/13 Q1016
 
LRCV - Αεροδρόμιο στη Κραϊόβα
Κραϊόβα - Δολζ - Ρουμανία
Γ.Πλάτ: 44.3167 - Γ.Μήκ: 23.8833 - Υψόμ: 191μ
Απόσταση από το Vouhead Weather: (Β) 424χλμ
Ενημερώθηκε: 04/07/2022 06:30
Αίθριος
Αίθριος
 Άνεμος από ΒΑ
Άνεμος: ΒΑ 7 km/h
Θερμοκρασία: 20°C
Σημ. Δρόσου: 17°C
Υγρασία: 83%
Βαρόμετρο: 1016 hPa
Περίληψη: Αίθριος
Ορατότητα: Μεγαλύτερη από 10 km
2022/07/04 03:30 LRCV 040330Z 05004KT CAVOK 20/17 Q1016
LIBR - Αεροδρόμιο στο Μπρίντιζι
(Ανεπίσημο όνομα αεροδρομίου: Ντελ Σαλέντο)
Μπρίντιζι(Πάπολα-Καζάλε) - Απουλία(Μπρίντιζι) - Ιταλία
Γ.Πλάτ: 40.6500 - Γ.Μήκ: 17.9500 - Υψόμ: 10μ
Απόσταση από το Vouhead Weather: (Δ) 424χλμ
Ενημερώθηκε: 04/07/2022 06:20
Αίθριος
Αίθριος
 Άνεμος από ΒΔ
Άνεμος: ΒΔ 11 km/h
Θερμοκρασία: 25°C
Σημ. Δρόσου: 21°C
Υγρασία: 79%
Βαρόμετρο: 1014 hPa
Περίληψη: Αίθριος
Ορατότητα: Μεγαλύτερη από 10 km
2022/07/04 03:20 LIBR 040320Z 32006KT CAVOK 25/21 Q1014
 
LBBG - Αεροδρόμιο στo Μπουργκάς
Μπουργκάς(Σαράφοβο) - Μπουργκάς - Βουλγαρία
Γ.Πλάτ: 42.5000 - Γ.Μήκ: 27.4833 - Υψόμ: 28μ
Απόσταση από το Vouhead Weather: (ΑΒΑ) 432χλμ
Ενημερώθηκε: 04/07/2022 06:30
Αίθριος
Αίθριος
 Άνεμος από ΔΒΔ
Άνεμος: ΔΒΔ 4 km/h
Θερμοκρασία: 16°C
Σημ. Δρόσου: 13°C
Υγρασία: 83%
Βαρόμετρο: 1017 hPa
Σύννεφα: Αίθριος
Ορατότητα: 10 km
2022/07/04 03:30 LBBG 040330Z AUTO 30002KT 9999 NCD 16/13 Q1017 NOSIG
LGPA - Αεροδρόμιο "Παντελαίειο"
Πάρος - Νότιο Αιγαίο - Ελλάδα
Γ.Πλάτ: 37.0000 - Γ.Μήκ: 25.0667 - Υψόμ: 36μ
Απόσταση από το Vouhead Weather: (ΝΝΑ) 436χλμ
Ενημερώθηκε: 04/07/2022 05:50
Αίθριος
Αίθριος
 Άνεμος από Β
Άνεμος: Β 28 km/h
Θερμοκρασία: 22°C
Σημ. Δρόσου: 15°C
Υγρασία: 65%
Βαρόμετρο: 1008 hPa
Περίληψη: Αίθριος
Ορατότητα: Μεγαλύτερη από 10 km
2022/07/04 02:50 LGPA 040250Z 35015KT CAVOK 22/15 Q1008
 
LGNX - Αεροδρόμιο στη Νάξο
Νάξος - Νότιο Αιγαίο - Ελλάδα
Γ.Πλάτ: 37.0833 - Γ.Μήκ: 25.3667 - Υψόμ: 4μ
Απόσταση από το Vouhead Weather: (ΝΝΑ) 439χλμ
Ενημερώθηκε: 03/07/2022 19:50
ΜΗ ΠΡΟΣΦΑΤΟ METAR
Αίθριος
Αίθριος
 Άνεμος από Β
Άνεμος: Β 20 km/h, Ριπή: 39 km/h
Θερμοκρασία: 25°C
Σημ. Δρόσου: 18°C
Υγρασία: 65%
Βαρόμετρο: 1009 hPa
Περίληψη: Αίθριος
Ορατότητα: Μεγαλύτερη από 10 km
2022/07/03 16:50 LGNX 031650Z 36011G21KT CAVOK 25/18 Q1009
LTBJ - Αεροδρόμιο "Αντνάν Μεντερές"
Σμύρνη - Αιγαίο(Σμύρνη) - Τουρκία
Γ.Πλάτ: 38.2667 - Γ.Μήκ: 27.1333 - Υψόμ: 120μ
Απόσταση από το Vouhead Weather: (ΝΑ) 439χλμ
Ενημερώθηκε: 04/07/2022 06:20
Αίθριος
Αίθριος
 Άνεμος από Β
Άνεμος: Β 31 km/h
Θερμοκρασία: 23°C
Σημ. Δρόσου: 11°C
Υγρασία: 47%
Βαρόμετρο: 1008 hPa
Περίληψη: Αίθριος
Ορατότητα: Μεγαλύτερη από 10 km
2022/07/04 03:20 LTBJ 040320Z 35017KT CAVOK 23/11 Q1008 NOSIG
 
LDDU - Αεροδρόμιο στο Ντουμπρόβνικ
Ντουμπρόβνικ - Ντουμπρόβνικ Νερέτβα - Κροατία
Γ.Πλάτ: 42.5667 - Γ.Μήκ: 18.2667 - Υψόμ: 165μ
Απόσταση από το Vouhead Weather: (ΔΒΔ) 450χλμ
Ενημερώθηκε: 04/07/2022 06:30
Αίθριος
Αίθριος
 Άνεμος από Μεταβλητός
Άνεμος: Μεταβλητός 4 km/h
Θερμοκρασία: 24°C
Σημ. Δρόσου: 17°C
Υγρασία: 65%
Βαρόμετρο: 1014 hPa
Περίληψη: Αίθριος
Ορατότητα: Μεγαλύτερη από 10 km
2022/07/04 03:30 LDDU 040330Z VRB02KT CAVOK 24/17 Q1014 NOSIG
LYUZ - Αεροδρόμιο στην Ούζιτσε & Πόνικβε
(Ανεπίσημο όνομα αεροδρομίου: Λέπα Γκλάβα)
Ούζιτσε - Σουμαντίγια και Δ. Σερβία - Σερβία
Γ.Πλάτ: 43.9000 - Γ.Μήκ: 19.7000 - Υψόμ: 904μ
Απόσταση από το Vouhead Weather: (ΒΔ) 458χλμ
Ενημερώθηκε: 04/11/2021 01:30
ΜΗ ΠΡΟΣΦΑΤΟ METAR

 Άνεμος από Μεταβλητός
Άνεμος: Μεταβλητός 9 km/h
Θερμοκρασία: 14°C
Σημ. Δρόσου: 7°C
Υγρασία: 63%
Βαρόμετρο: 1010 hPa
Ορατότητα: 10 km
2021/11/03 23:30 LYUZ 032330Z AUTO VRB05KT 9999 ////// 14/07 Q1010
 
LGSM - Αεροδρόμιο "Αρίσταρχος ο Σάμιος"
Σάμος - Βόρειο Αιγαίο - Ελλάδα
Γ.Πλάτ: 37.6833 - Γ.Μήκ: 26.9167 - Υψόμ: 6μ
Απόσταση από το Vouhead Weather: (ΝΑ) 467χλμ
Ενημερώθηκε: 04/07/2022 05:50
Αίθριος
Αίθριος
 Άνεμος από ΒΒΑ
Άνεμος: ΒΒΑ 19 km/h
Θερμοκρασία: 24°C
Σημ. Δρόσου: 14°C
Υγρασία: 54%
Βαρόμετρο: 1007 hPa
Περίληψη: Αίθριος
Ορατότητα: Μεγαλύτερη από 10 km
2022/07/04 02:50 LGSM 040250Z 02010KT CAVOK 24/14 Q1007
LIBG - Αεροδρόμιο "Μαρτσέλο Αρλόττα"
Μουντιάζι(Ταράντο-Γκροτάλιε)-Απουλία(Ταράντο)-Ιταλία
Γ.Πλάτ: 40.5167 - Γ.Μήκ: 17.3833 - Υψόμ: 69μ
Απόσταση από το Vouhead Weather: (Δ) 472χλμ
Ενημερώθηκε: 03/07/2022 20:50
ΜΗ ΠΡΟΣΦΑΤΟ METAR
Αίθριος
Αίθριος
 Άνεμος από Β
Άνεμος: Β 15 km/h
Θερμοκρασία: 33°C
Σημ. Δρόσου: 15°C
Υγρασία: 34%
Βαρόμετρο: 1013 hPa
Περίληψη: Αίθριος
Ορατότητα: Μεγαλύτερη από 10 km
2022/07/03 17:50 LIBG 031750Z 01008KT CAVOK 33/15 Q1013
 
LGKC - Αεροδρόμιο στα Κύθηρα
Κύθηρα(Επτάνησα) - Αττική(Νήσοι) - Ελλάδα
Γ.Πλάτ: 36.2833 - Γ.Μήκ: 23.0167 - Υψόμ: 319μ
Απόσταση από το Vouhead Weather: (Ν) 476χλμ
Ενημερώθηκε: 03/07/2022 22:50
ΜΗ ΠΡΟΣΦΑΤΟ METAR
Αίθριος
Αίθριος
 Άνεμος από ΒΒΔ
Άνεμος: ΒΒΔ 11 km/h
Θερμοκρασία: 23°C
Σημ. Δρόσου: 20°C
Υγρασία: 83%
Βαρόμετρο: 1014 hPa
Περίληψη: Αίθριος
Ορατότητα: Μεγαλύτερη από 10 km
2022/07/03 19:50 LGKC 031950Z 33006KT CAVOK 23/20 Q1014
LTBA - Αεροδρόμιο "Ατατούρκ"
Κωνσταντινούπολη - Μαρμαράς(Κων/πολη) - Τουρκία
Γ.Πλάτ: 40.9667 - Γ.Μήκ: 28.8167 - Υψόμ: 37μ
Απόσταση από το Vouhead Weather: (Α) 494χλμ
Ενημερώθηκε: 04/07/2022 06:20
Αίθριος
Αίθριος
 Άνεμος από ΒΑ
Άνεμος: ΒΑ 17 km/h
Θερμοκρασία: 21°C
Σημ. Δρόσου: 15°C
Υγρασία: 69%
Βαρόμετρο: 1015 hPa
Περίληψη: Αίθριος
Ορατότητα: Μεγαλύτερη από 10 km
2022/07/04 03:20 LTBA 040320Z 05009KT CAVOK 21/15 Q1015 NOSIG
   Μην χρησιμοποιήσετε τα στοιχεία για αποφάσεις που αφορούν ζωές και πάσης φύσεως ιδιοκτησίες  
ΠΗΓΑΙΝΕΤΕ ΣΤΗΝ ΙΟΝΙΑ GO TO REA ΠΗΓΑΙΝΕΤΕ ΣΤΗΝ ΚΗΦΙΣΙΑ ΠΗΓΑΙΝΕΤΕ ΣΤΗΝ ΣΥΡΟ ΠΗΓΑΙΝΕΤΕ ΣΤΗΝ ΔΕΞΑΜΕΝΗ (BOLTEK) ΠΗΓΑΙΝΕΤΕ ΣΤΗΝ ΔΕΞΑΜΕΝΗ (LR) ΠΗΓΑΙΝΕΤΕ ΣΤΗΝ ΛΑΡΙΣΑ Γενική Γραμματεία Πολιτικής Προστασίας Ενιαίος Ευρωπαϊκός Αριθμός Έκτακτης Ανάγκης Βίντεο για το Καστελλόριζο(Μεγίστη) από τα αρχεία της ΕΡΤ Ιστοσελίδα Δήμου Μεγίστης Δείτε το μεγαλύτερο